sensor_id;sensor_type;location;lat;lon;timestamp;P1;durP1;ratioP1;P2;durP2;ratioP2
47603;SDS011;33326;51.116;6.900;2022-11-24T00:02:21;18.92;;;6.15;;
47603;SDS011;33326;51.116;6.900;2022-11-24T00:07:22;19.60;;;6.13;;
47603;SDS011;33326;51.116;6.900;2022-11-24T00:12:26;19.05;;;4.97;;
47603;SDS011;33326;51.116;6.900;2022-11-24T00:17:27;22.85;;;4.88;;
47603;SDS011;33326;51.116;6.900;2022-11-24T00:22:29;21.73;;;6.03;;
47603;SDS011;33326;51.116;6.900;2022-11-24T00:27:32;23.05;;;5.88;;
47603;SDS011;33326;51.116;6.900;2022-11-24T00:32:34;16.00;;;5.03;;
47603;SDS011;33326;51.116;6.900;2022-11-24T00:37:36;19.73;;;5.45;;
47603;SDS011;33326;51.116;6.900;2022-11-24T00:42:39;18.02;;;4.90;;
47603;SDS011;33326;51.116;6.900;2022-11-24T00:47:41;15.35;;;4.60;;
47603;SDS011;33326;51.116;6.900;2022-11-24T00:52:43;17.38;;;4.60;;
47603;SDS011;33326;51.116;6.900;2022-11-24T00:57:46;19.05;;;4.82;;
47603;SDS011;33326;51.116;6.900;2022-11-24T01:02:47;13.85;;;4.00;;
47603;SDS011;33326;51.116;6.900;2022-11-24T01:07:49;19.80;;;3.92;;
47603;SDS011;33326;51.116;6.900;2022-11-24T01:12:52;18.02;;;4.40;;
47603;SDS011;33326;51.116;6.900;2022-11-24T01:17:54;14.50;;;3.55;;
47603;SDS011;33326;51.116;6.900;2022-11-24T01:22:56;17.63;;;4.18;;
47603;SDS011;33326;51.116;6.900;2022-11-24T01:27:59;17.05;;;4.15;;
47603;SDS011;33326;51.116;6.900;2022-11-24T01:33:01;31.88;;;5.32;;
47603;SDS011;33326;51.116;6.900;2022-11-24T01:38:03;17.25;;;4.75;;
47603;SDS011;33326;51.116;6.900;2022-11-24T01:43:14;19.23;;;4.60;;
47603;SDS011;33326;51.116;6.900;2022-11-24T01:48:17;19.00;;;4.10;;
47603;SDS011;33326;51.116;6.900;2022-11-24T01:53:22;28.25;;;5.05;;
47603;SDS011;33326;51.116;6.900;2022-11-24T01:58:26;20.80;;;4.15;;
47603;SDS011;33326;51.116;6.900;2022-11-24T02:03:33;26.15;;;5.38;;
47603;SDS011;33326;51.116;6.900;2022-11-24T02:08:39;18.08;;;4.47;;
47603;SDS011;33326;51.116;6.900;2022-11-24T02:13:46;17.70;;;3.75;;
47603;SDS011;33326;51.116;6.900;2022-11-24T02:18:49;20.00;;;4.55;;
47603;SDS011;33326;51.116;6.900;2022-11-24T02:23:54;18.67;;;4.25;;
47603;SDS011;33326;51.116;6.900;2022-11-24T02:29:01;14.85;;;4.32;;
47603;SDS011;33326;51.116;6.900;2022-11-24T02:34:03;19.38;;;4.40;;
47603;SDS011;33326;51.116;6.900;2022-11-24T02:39:07;19.65;;;4.07;;
47603;SDS011;33326;51.116;6.900;2022-11-24T02:44:12;21.92;;;4.57;;
47603;SDS011;33326;51.116;6.900;2022-11-24T02:49:15;20.40;;;3.50;;
47603;SDS011;33326;51.116;6.900;2022-11-24T02:54:17;24.13;;;5.13;;
47603;SDS011;33326;51.116;6.900;2022-11-24T02:59:20;20.50;;;4.22;;
47603;SDS011;33326;51.116;6.900;2022-11-24T03:04:22;20.17;;;4.70;;
47603;SDS011;33326;51.116;6.900;2022-11-24T03:09:24;21.45;;;4.60;;
47603;SDS011;33326;51.116;6.900;2022-11-24T03:14:27;17.58;;;4.50;;
47603;SDS011;33326;51.116;6.900;2022-11-24T03:19:29;14.00;;;4.22;;
47603;SDS011;33326;51.116;6.900;2022-11-24T03:24:30;19.00;;;4.68;;
47603;SDS011;33326;51.116;6.900;2022-11-24T03:29:34;19.98;;;4.68;;
47603;SDS011;33326;51.116;6.900;2022-11-24T03:34:36;21.30;;;5.07;;
47603;SDS011;33326;51.116;6.900;2022-11-24T03:39:37;24.98;;;5.05;;
47603;SDS011;33326;51.116;6.900;2022-11-24T03:44:40;20.65;;;4.72;;
47603;SDS011;33326;51.116;6.900;2022-11-24T03:49:42;18.27;;;4.57;;
47603;SDS011;33326;51.116;6.900;2022-11-24T03:54:44;23.50;;;4.88;;
47603;SDS011;33326;51.116;6.900;2022-11-24T03:59:48;22.92;;;3.95;;
47603;SDS011;33326;51.116;6.900;2022-11-24T04:04:50;19.42;;;4.13;;
47603;SDS011;33326;51.116;6.900;2022-11-24T04:09:51;24.27;;;4.40;;
47603;SDS011;33326;51.116;6.900;2022-11-24T04:14:55;22.88;;;4.57;;
47603;SDS011;33326;51.116;6.900;2022-11-24T04:19:56;18.63;;;4.45;;
47603;SDS011;33326;51.116;6.900;2022-11-24T04:24:58;24.63;;;4.90;;
47603;SDS011;33326;51.116;6.900;2022-11-24T04:30:01;18.23;;;4.22;;
47603;SDS011;33326;51.116;6.900;2022-11-24T04:35:04;22.70;;;4.03;;
47603;SDS011;33326;51.116;6.900;2022-11-24T04:40:07;23.02;;;4.63;;
47603;SDS011;33326;51.116;6.900;2022-11-24T04:45:12;20.25;;;4.55;;
47603;SDS011;33326;51.116;6.900;2022-11-24T04:50:14;21.23;;;4.25;;
47603;SDS011;33326;51.116;6.900;2022-11-24T04:55:16;19.65;;;4.15;;
47603;SDS011;33326;51.116;6.900;2022-11-24T05:00:19;16.20;;;4.32;;
47603;SDS011;33326;51.116;6.900;2022-11-24T05:05:21;18.02;;;4.30;;
47603;SDS011;33326;51.116;6.900;2022-11-24T05:10:23;26.13;;;4.53;;
47603;SDS011;33326;51.116;6.900;2022-11-24T05:15:39;23.55;;;4.43;;
47603;SDS011;33326;51.116;6.900;2022-11-24T05:20:42;29.88;;;4.80;;
47603;SDS011;33326;51.116;6.900;2022-11-24T05:25:44;24.00;;;4.32;;
47603;SDS011;33326;51.116;6.900;2022-11-24T05:30:47;26.85;;;5.13;;
47603;SDS011;33326;51.116;6.900;2022-11-24T05:35:49;28.63;;;5.03;;
47603;SDS011;33326;51.116;6.900;2022-11-24T05:40:51;27.00;;;4.72;;
47603;SDS011;33326;51.116;6.900;2022-11-24T05:45:56;27.00;;;4.90;;
47603;SDS011;33326;51.116;6.900;2022-11-24T05:50:59;31.00;;;5.25;;
47603;SDS011;33326;51.116;6.900;2022-11-24T05:56:01;23.42;;;4.55;;
47603;SDS011;33326;51.116;6.900;2022-11-24T06:01:05;22.15;;;5.13;;
47603;SDS011;33326;51.116;6.900;2022-11-24T06:06:08;28.45;;;4.75;;
47603;SDS011;33326;51.116;6.900;2022-11-24T06:11:10;21.90;;;5.00;;
47603;SDS011;33326;51.116;6.900;2022-11-24T06:16:19;21.33;;;4.45;;
47603;SDS011;33326;51.116;6.900;2022-11-24T06:21:21;19.08;;;4.00;;
47603;SDS011;33326;51.116;6.900;2022-11-24T06:26:23;24.33;;;4.32;;
47603;SDS011;33326;51.116;6.900;2022-11-24T06:31:26;25.02;;;4.40;;
47603;SDS011;33326;51.116;6.900;2022-11-24T06:36:28;20.15;;;2.80;;
47603;SDS011;33326;51.116;6.900;2022-11-24T06:41:29;19.52;;;3.20;;
47603;SDS011;33326;51.116;6.900;2022-11-24T06:46:32;11.05;;;2.10;;
47603;SDS011;33326;51.116;6.900;2022-11-24T06:51:34;5.90;;;1.83;;
47603;SDS011;33326;51.116;6.900;2022-11-24T06:56:36;5.53;;;1.20;;
47603;SDS011;33326;51.116;6.900;2022-11-24T07:01:39;6.43;;;2.03;;
47603;SDS011;33326;51.116;6.900;2022-11-24T07:06:41;4.32;;;0.98;;
47603;SDS011;33326;51.116;6.900;2022-11-24T07:11:43;5.55;;;1.30;;
47603;SDS011;33326;51.116;6.900;2022-11-24T07:16:46;5.72;;;1.60;;
47603;SDS011;33326;51.116;6.900;2022-11-24T07:21:48;9.57;;;1.60;;
47603;SDS011;33326;51.116;6.900;2022-11-24T07:26:50;5.25;;;1.80;;
47603;SDS011;33326;51.116;6.900;2022-11-24T07:31:53;5.72;;;1.23;;
47603;SDS011;33326;51.116;6.900;2022-11-24T07:36:55;4.75;;;1.60;;
47603;SDS011;33326;51.116;6.900;2022-11-24T07:41:57;7.82;;;1.60;;
47603;SDS011;33326;51.116;6.900;2022-11-24T07:47:00;6.82;;;2.30;;
47603;SDS011;33326;51.116;6.900;2022-11-24T07:52:02;7.25;;;1.60;;
47603;SDS011;33326;51.116;6.900;2022-11-24T07:57:04;4.20;;;1.70;;
47603;SDS011;33326;51.116;6.900;2022-11-24T08:02:08;6.78;;;1.55;;
47603;SDS011;33326;51.116;6.900;2022-11-24T08:07:11;6.68;;;1.98;;
47603;SDS011;33326;51.116;6.900;2022-11-24T08:12:13;8.77;;;2.15;;
47603;SDS011;33326;51.116;6.900;2022-11-24T08:17:17;7.72;;;2.10;;
47603;SDS011;33326;51.116;6.900;2022-11-24T08:22:20;9.38;;;2.08;;
47603;SDS011;33326;51.116;6.900;2022-11-24T08:27:21;11.45;;;2.33;;
47603;SDS011;33326;51.116;6.900;2022-11-24T08:32:25;10.93;;;2.33;;
47603;SDS011;33326;51.116;6.900;2022-11-24T08:37:27;11.05;;;3.08;;
47603;SDS011;33326;51.116;6.900;2022-11-24T08:42:28;9.02;;;2.95;;
47603;SDS011;33326;51.116;6.900;2022-11-24T08:47:31;9.82;;;2.60;;
47603;SDS011;33326;51.116;6.900;2022-11-24T08:52:33;13.65;;;2.88;;
47603;SDS011;33326;51.116;6.900;2022-11-24T08:57:35;13.63;;;3.13;;
47603;SDS011;33326;51.116;6.900;2022-11-24T09:02:39;8.82;;;2.65;;
47603;SDS011;33326;51.116;6.900;2022-11-24T09:07:42;12.50;;;2.28;;
47603;SDS011;33326;51.116;6.900;2022-11-24T09:12:44;15.43;;;3.00;;
47603;SDS011;33326;51.116;6.900;2022-11-24T09:17:47;15.38;;;2.95;;
47603;SDS011;33326;51.116;6.900;2022-11-24T09:22:49;13.50;;;2.67;;
47603;SDS011;33326;51.116;6.900;2022-11-24T09:27:50;12.35;;;3.10;;
47603;SDS011;33326;51.116;6.900;2022-11-24T09:32:55;15.88;;;3.15;;
47603;SDS011;33326;51.116;6.900;2022-11-24T09:37:57;13.52;;;2.70;;
47603;SDS011;33326;51.116;6.900;2022-11-24T09:42:59;11.32;;;2.72;;
47603;SDS011;33326;51.116;6.900;2022-11-24T09:48:09;15.48;;;2.55;;
47603;SDS011;33326;51.116;6.900;2022-11-24T09:53:14;10.07;;;3.05;;
47603;SDS011;33326;51.116;6.900;2022-11-24T09:58:29;18.15;;;3.25;;
47603;SDS011;33326;51.116;6.900;2022-11-24T10:03:39;12.00;;;2.50;;
47603;SDS011;33326;51.116;6.900;2022-11-24T10:08:59;13.50;;;2.72;;
47603;SDS011;33326;51.116;6.900;2022-11-24T10:14:16;9.95;;;3.00;;
47603;SDS011;33326;51.116;6.900;2022-11-24T10:19:42;15.63;;;3.00;;
47603;SDS011;33326;51.116;6.900;2022-11-24T10:24:55;23.00;;;3.28;;
47603;SDS011;33326;51.116;6.900;2022-11-24T10:30:06;16.00;;;2.85;;
47603;SDS011;33326;51.116;6.900;2022-11-24T10:35:17;13.20;;;3.17;;
47603;SDS011;33326;51.116;6.900;2022-11-24T10:40:23;18.83;;;2.80;;
47603;SDS011;33326;51.116;6.900;2022-11-24T10:45:33;17.67;;;3.83;;
47603;SDS011;33326;51.116;6.900;2022-11-24T10:50:39;12.23;;;3.20;;
47603;SDS011;33326;51.116;6.900;2022-11-24T10:55:59;17.52;;;3.40;;
47603;SDS011;33326;51.116;6.900;2022-11-24T11:01:18;13.73;;;3.05;;
47603;SDS011;33326;51.116;6.900;2022-11-24T11:06:23;14.50;;;3.22;;
47603;SDS011;33326;51.116;6.900;2022-11-24T11:11:26;17.80;;;3.33;;
47603;SDS011;33326;51.116;6.900;2022-11-24T11:16:31;14.88;;;3.22;;
47603;SDS011;33326;51.116;6.900;2022-11-24T11:21:37;15.20;;;3.30;;
47603;SDS011;33326;51.116;6.900;2022-11-24T11:26:39;15.23;;;3.13;;
47603;SDS011;33326;51.116;6.900;2022-11-24T11:31:41;16.67;;;3.25;;
47603;SDS011;33326;51.116;6.900;2022-11-24T11:36:59;16.83;;;3.45;;
47603;SDS011;33326;51.116;6.900;2022-11-24T11:42:11;16.17;;;3.20;;
47603;SDS011;33326;51.116;6.900;2022-11-24T11:47:20;19.52;;;3.95;;
47603;SDS011;33326;51.116;6.900;2022-11-24T11:52:36;19.20;;;3.13;;
47603;SDS011;33326;51.116;6.900;2022-11-24T11:57:49;11.88;;;2.97;;
47603;SDS011;33326;51.116;6.900;2022-11-24T12:03:12;11.98;;;2.92;;
47603;SDS011;33326;51.116;6.900;2022-11-24T12:08:33;17.23;;;3.45;;
47603;SDS011;33326;51.116;6.900;2022-11-24T12:13:46;20.15;;;3.33;;
47603;SDS011;33326;51.116;6.900;2022-11-24T12:19:11;14.45;;;3.17;;
47603;SDS011;33326;51.116;6.900;2022-11-24T12:24:36;13.65;;;2.90;;
47603;SDS011;33326;51.116;6.900;2022-11-24T12:29:51;16.35;;;3.40;;
47603;SDS011;33326;51.116;6.900;2022-11-24T12:35:14;18.77;;;3.55;;
47603;SDS011;33326;51.116;6.900;2022-11-24T12:40:25;16.07;;;3.40;;
47603;SDS011;33326;51.116;6.900;2022-11-24T12:45:38;14.48;;;3.55;;
47603;SDS011;33326;51.116;6.900;2022-11-24T12:50:48;18.77;;;4.00;;
47603;SDS011;33326;51.116;6.900;2022-11-24T12:55:53;19.67;;;3.92;;
47603;SDS011;33326;51.116;6.900;2022-11-24T13:01:01;17.00;;;3.85;;
47603;SDS011;33326;51.116;6.900;2022-11-24T13:06:14;14.68;;;3.50;;
47603;SDS011;33326;51.116;6.900;2022-11-24T13:11:29;21.25;;;3.88;;
47603;SDS011;33326;51.116;6.900;2022-11-24T13:16:46;17.37;;;3.90;;
47603;SDS011;33326;51.116;6.900;2022-11-24T13:22:02;17.40;;;4.20;;
47603;SDS011;33326;51.116;6.900;2022-11-24T13:27:24;15.20;;;3.55;;
47603;SDS011;33326;51.116;6.900;2022-11-24T13:37:59;19.27;;;3.85;;
47603;SDS011;33326;51.116;6.900;2022-11-24T13:43:21;15.57;;;3.75;;
47603;SDS011;33326;51.116;6.900;2022-11-24T13:53:53;24.33;;;3.95;;
47603;SDS011;33326;51.116;6.900;2022-11-24T13:59:01;16.67;;;3.08;;
47603;SDS011;33326;51.116;6.900;2022-11-24T14:04:17;17.48;;;3.92;;
47603;SDS011;33326;51.116;6.900;2022-11-24T14:09:21;14.88;;;3.28;;
47603;SDS011;33326;51.116;6.900;2022-11-24T14:14:28;10.40;;;2.80;;
47603;SDS011;33326;51.116;6.900;2022-11-24T14:19:29;12.65;;;3.00;;
47603;SDS011;33326;51.116;6.900;2022-11-24T14:24:32;17.52;;;4.20;;
47603;SDS011;33326;51.116;6.900;2022-11-24T14:29:35;17.83;;;3.10;;
47603;SDS011;33326;51.116;6.900;2022-11-24T14:34:37;15.63;;;3.63;;
47603;SDS011;33326;51.116;6.900;2022-11-24T14:39:39;18.83;;;3.60;;
47603;SDS011;33326;51.116;6.900;2022-11-24T14:44:44;19.13;;;3.78;;
47603;SDS011;33326;51.116;6.900;2022-11-24T14:49:50;17.17;;;3.75;;
47603;SDS011;33326;51.116;6.900;2022-11-24T14:54:53;16.40;;;3.42;;
47603;SDS011;33326;51.116;6.900;2022-11-24T15:00:04;18.77;;;3.80;;
47603;SDS011;33326;51.116;6.900;2022-11-24T15:05:14;18.48;;;3.30;;
47603;SDS011;33326;51.116;6.900;2022-11-24T15:10:17;10.95;;;3.10;;
47603;SDS011;33326;51.116;6.900;2022-11-24T15:15:25;16.95;;;3.65;;
47603;SDS011;33326;51.116;6.900;2022-11-24T15:20:32;15.85;;;3.42;;
47603;SDS011;33326;51.116;6.900;2022-11-24T15:25:36;18.52;;;3.65;;
47603;SDS011;33326;51.116;6.900;2022-11-24T15:30:39;10.75;;;3.08;;
47603;SDS011;33326;51.116;6.900;2022-11-24T15:35:41;14.07;;;3.65;;
47603;SDS011;33326;51.116;6.900;2022-11-24T15:40:44;14.55;;;3.13;;
47603;SDS011;33326;51.116;6.900;2022-11-24T15:45:49;10.55;;;3.33;;
47603;SDS011;33326;51.116;6.900;2022-11-24T15:50:51;17.60;;;3.67;;
47603;SDS011;33326;51.116;6.900;2022-11-24T15:55:54;18.45;;;3.67;;
47603;SDS011;33326;51.116;6.900;2022-11-24T16:00:58;14.20;;;3.17;;
47603;SDS011;33326;51.116;6.900;2022-11-24T16:06:00;18.60;;;3.83;;
47603;SDS011;33326;51.116;6.900;2022-11-24T16:11:02;16.83;;;3.40;;
47603;SDS011;33326;51.116;6.900;2022-11-24T16:16:06;12.30;;;3.10;;
47603;SDS011;33326;51.116;6.900;2022-11-24T16:21:08;14.32;;;3.60;;
47603;SDS011;33326;51.116;6.900;2022-11-24T16:26:11;17.27;;;3.95;;
47603;SDS011;33326;51.116;6.900;2022-11-24T16:31:14;14.30;;;4.22;;
47603;SDS011;33326;51.116;6.900;2022-11-24T16:36:17;16.23;;;4.40;;
47603;SDS011;33326;51.116;6.900;2022-11-24T16:41:19;18.20;;;3.90;;
47603;SDS011;33326;51.116;6.900;2022-11-24T16:46:23;17.90;;;3.97;;
47603;SDS011;33326;51.116;6.900;2022-11-24T16:51:25;21.38;;;4.22;;
47603;SDS011;33326;51.116;6.900;2022-11-24T16:56:28;14.65;;;4.35;;
47603;SDS011;33326;51.116;6.900;2022-11-24T17:01:31;16.08;;;4.10;;
47603;SDS011;33326;51.116;6.900;2022-11-24T17:06:34;13.73;;;3.72;;
47603;SDS011;33326;51.116;6.900;2022-11-24T17:11:36;12.85;;;3.20;;
47603;SDS011;33326;51.116;6.900;2022-11-24T17:16:40;16.95;;;3.83;;
47603;SDS011;33326;51.116;6.900;2022-11-24T17:21:42;14.77;;;3.55;;
47603;SDS011;33326;51.116;6.900;2022-11-24T17:26:44;18.40;;;3.17;;
47603;SDS011;33326;51.116;6.900;2022-11-24T17:31:47;18.20;;;4.22;;
47603;SDS011;33326;51.116;6.900;2022-11-24T17:36:49;16.42;;;4.30;;
47603;SDS011;33326;51.116;6.900;2022-11-24T17:41:51;20.35;;;4.20;;
47603;SDS011;33326;51.116;6.900;2022-11-24T17:46:54;18.15;;;4.00;;
47603;SDS011;33326;51.116;6.900;2022-11-24T17:51:57;13.45;;;3.42;;
47603;SDS011;33326;51.116;6.900;2022-11-24T17:56:59;13.63;;;3.65;;
47603;SDS011;33326;51.116;6.900;2022-11-24T18:02:02;16.15;;;3.90;;
47603;SDS011;33326;51.116;6.900;2022-11-24T18:07:04;15.18;;;3.15;;
47603;SDS011;33326;51.116;6.900;2022-11-24T18:12:06;13.40;;;3.53;;
47603;SDS011;33326;51.116;6.900;2022-11-24T18:17:09;13.05;;;3.42;;
47603;SDS011;33326;51.116;6.900;2022-11-24T18:22:11;19.08;;;3.05;;
47603;SDS011;33326;51.116;6.900;2022-11-24T18:27:13;21.50;;;3.42;;
47603;SDS011;33326;51.116;6.900;2022-11-24T18:32:16;14.07;;;3.25;;
47603;SDS011;33326;51.116;6.900;2022-11-24T18:37:18;12.18;;;3.13;;
47603;SDS011;33326;51.116;6.900;2022-11-24T18:42:20;19.38;;;3.70;;
47603;SDS011;33326;51.116;6.900;2022-11-24T18:47:25;15.63;;;3.47;;
47603;SDS011;33326;51.116;6.900;2022-11-24T18:52:27;14.98;;;4.13;;
47603;SDS011;33326;51.116;6.900;2022-11-24T18:57:29;18.55;;;4.57;;
47603;SDS011;33326;51.116;6.900;2022-11-24T19:02:32;19.90;;;3.95;;
47603;SDS011;33326;51.116;6.900;2022-11-24T19:07:35;17.38;;;4.70;;
47603;SDS011;33326;51.116;6.900;2022-11-24T19:12:36;12.05;;;3.80;;
47603;SDS011;33326;51.116;6.900;2022-11-24T19:17:40;16.10;;;4.15;;
47603;SDS011;33326;51.116;6.900;2022-11-24T19:22:41;15.15;;;4.03;;
47603;SDS011;33326;51.116;6.900;2022-11-24T19:27:43;15.57;;;4.70;;
47603;SDS011;33326;51.116;6.900;2022-11-24T19:32:46;19.23;;;3.80;;
47603;SDS011;33326;51.116;6.900;2022-11-24T19:37:48;21.40;;;6.30;;
47603;SDS011;33326;51.116;6.900;2022-11-24T19:42:50;16.17;;;4.70;;
47603;SDS011;33326;51.116;6.900;2022-11-24T19:47:53;16.58;;;4.05;;
47603;SDS011;33326;51.116;6.900;2022-11-24T19:52:55;14.40;;;3.65;;
47603;SDS011;33326;51.116;6.900;2022-11-24T19:57:57;19.90;;;5.18;;
47603;SDS011;33326;51.116;6.900;2022-11-24T20:03:00;19.42;;;4.18;;
47603;SDS011;33326;51.116;6.900;2022-11-24T20:08:02;21.27;;;4.05;;
47603;SDS011;33326;51.116;6.900;2022-11-24T20:13:04;20.15;;;4.28;;
47603;SDS011;33326;51.116;6.900;2022-11-24T20:18:07;19.50;;;3.88;;
47603;SDS011;33326;51.116;6.900;2022-11-24T20:23:09;21.88;;;5.80;;
47603;SDS011;33326;51.116;6.900;2022-11-24T20:28:11;14.02;;;4.18;;
47603;SDS011;33326;51.116;6.900;2022-11-24T20:33:14;19.25;;;4.10;;
47603;SDS011;33326;51.116;6.900;2022-11-24T20:38:16;24.83;;;4.53;;
47603;SDS011;33326;51.116;6.900;2022-11-24T20:43:17;16.85;;;4.00;;
47603;SDS011;33326;51.116;6.900;2022-11-24T20:48:20;26.25;;;5.18;;
47603;SDS011;33326;51.116;6.900;2022-11-24T20:53:22;23.48;;;5.38;;
47603;SDS011;33326;51.116;6.900;2022-11-24T20:58:24;20.58;;;4.60;;
47603;SDS011;33326;51.116;6.900;2022-11-24T21:03:27;19.50;;;4.15;;
47603;SDS011;33326;51.116;6.900;2022-11-24T21:08:30;17.42;;;4.47;;
47603;SDS011;33326;51.116;6.900;2022-11-24T21:13:33;17.38;;;4.00;;
47603;SDS011;33326;51.116;6.900;2022-11-24T21:18:37;19.70;;;4.00;;
47603;SDS011;33326;51.116;6.900;2022-11-24T21:23:39;20.73;;;8.93;;
47603;SDS011;33326;51.116;6.900;2022-11-24T21:28:41;25.73;;;10.05;;
47603;SDS011;33326;51.116;6.900;2022-11-24T21:33:46;18.05;;;4.43;;
47603;SDS011;33326;51.116;6.900;2022-11-24T21:38:50;15.80;;;4.57;;
47603;SDS011;33326;51.116;6.900;2022-11-24T21:43:53;20.08;;;4.55;;
47603;SDS011;33326;51.116;6.900;2022-11-24T21:48:56;18.55;;;4.45;;
47603;SDS011;33326;51.116;6.900;2022-11-24T21:53:58;14.55;;;4.15;;
47603;SDS011;33326;51.116;6.900;2022-11-24T21:59:00;19.80;;;4.18;;
47603;SDS011;33326;51.116;6.900;2022-11-24T22:04:03;13.82;;;4.00;;
47603;SDS011;33326;51.116;6.900;2022-11-24T22:09:05;17.05;;;4.18;;
47603;SDS011;33326;51.116;6.900;2022-11-24T22:14:07;17.23;;;4.45;;
47603;SDS011;33326;51.116;6.900;2022-11-24T22:19:11;14.52;;;3.97;;
47603;SDS011;33326;51.116;6.900;2022-11-24T22:24:13;16.23;;;3.85;;
47603;SDS011;33326;51.116;6.900;2022-11-24T22:29:14;20.70;;;4.38;;
47603;SDS011;33326;51.116;6.900;2022-11-24T22:34:18;15.63;;;4.30;;
47603;SDS011;33326;51.116;6.900;2022-11-24T22:39:19;18.55;;;3.95;;
47603;SDS011;33326;51.116;6.900;2022-11-24T22:44:21;19.75;;;4.15;;
47603;SDS011;33326;51.116;6.900;2022-11-24T22:49:24;17.25;;;3.67;;
47603;SDS011;33326;51.116;6.900;2022-11-24T22:54:27;13.07;;;3.80;;
47603;SDS011;33326;51.116;6.900;2022-11-24T22:59:29;15.73;;;3.83;;
47603;SDS011;33326;51.116;6.900;2022-11-24T23:04:32;16.35;;;4.13;;
47603;SDS011;33326;51.116;6.900;2022-11-24T23:09:34;14.88;;;3.60;;
47603;SDS011;33326;51.116;6.900;2022-11-24T23:14:35;17.65;;;4.13;;
47603;SDS011;33326;51.116;6.900;2022-11-24T23:19:39;18.25;;;4.05;;
47603;SDS011;33326;51.116;6.900;2022-11-24T23:24:40;14.38;;;3.83;;
47603;SDS011;33326;51.116;6.900;2022-11-24T23:29:42;18.77;;;3.70;;
47603;SDS011;33326;51.116;6.900;2022-11-24T23:34:45;17.65;;;4.00;;
47603;SDS011;33326;51.116;6.900;2022-11-24T23:39:47;13.80;;;3.25;;
47603;SDS011;33326;51.116;6.900;2022-11-24T23:44:49;14.70;;;3.60;;
47603;SDS011;33326;51.116;6.900;2022-11-24T23:49:52;14.80;;;3.42;;
47603;SDS011;33326;51.116;6.900;2022-11-24T23:54:54;16.65;;;4.00;;
47603;SDS011;33326;51.116;6.900;2022-11-24T23:59:56;13.73;;;3.45;;
